createdAt,value
2018-09-15T00:01:05.809Z,14.40
2018-09-15T00:03:33.355Z,14.30
2018-09-15T00:06:00.896Z,14.30
2018-09-15T00:08:28.490Z,14.30
2018-09-15T00:10:56.139Z,14.30
2018-09-15T00:13:23.867Z,14.20
2018-09-15T00:15:51.708Z,14.20
2018-09-15T00:18:19.334Z,14.20
2018-09-15T00:20:46.968Z,14.20
2018-09-15T00:23:15.138Z,14.10
2018-09-15T00:25:42.877Z,14.10
2018-09-15T00:28:11.031Z,14.10
2018-09-15T00:30:38.821Z,14.10
2018-09-15T00:33:06.359Z,14.10
2018-09-15T00:35:33.939Z,14.10
2018-09-15T00:38:01.521Z,14.10
2018-09-15T00:40:29.061Z,14.00
2018-09-15T00:42:56.595Z,14.10
2018-09-15T00:45:24.158Z,14.10
2018-09-15T00:47:51.841Z,14.10
2018-09-15T00:50:19.388Z,14.10
2018-09-15T00:52:46.966Z,14.00
2018-09-15T00:55:14.514Z,14.00
2018-09-15T00:57:42.098Z,14.00
2018-09-15T01:00:09.767Z,13.90
2018-09-15T01:02:37.358Z,13.90
2018-09-15T01:05:05.358Z,13.90
2018-09-15T01:07:32.922Z,13.80
2018-09-15T01:10:00.494Z,13.90
2018-09-15T01:12:28.032Z,13.90
2018-09-15T01:14:55.554Z,13.90
2018-09-15T01:17:23.105Z,13.90
2018-09-15T01:19:50.730Z,13.90
2018-09-15T01:22:18.352Z,14.00
2018-09-15T01:24:46.099Z,14.00
2018-09-15T01:27:13.699Z,14.00
2018-09-15T01:29:41.258Z,14.00
2018-09-15T01:32:08.898Z,14.00
2018-09-15T01:34:36.430Z,14.00
2018-09-15T01:37:04.030Z,14.00
2018-09-15T01:39:31.569Z,14.00
2018-09-15T01:41:59.090Z,14.00
2018-09-15T01:44:26.619Z,14.10
2018-09-15T01:46:54.120Z,14.10
2018-09-15T01:49:21.682Z,14.00
2018-09-15T01:51:49.490Z,14.00
2018-09-15T01:54:17.779Z,13.90
2018-09-15T01:56:45.329Z,14.00
2018-09-15T01:59:12.842Z,14.00
2018-09-15T02:01:40.448Z,14.00
2018-09-15T02:04:08.381Z,14.10
2018-09-15T02:06:35.957Z,14.10
2018-09-15T02:09:08.492Z,14.10
2018-09-15T02:11:36.040Z,14.10
2018-09-15T02:14:03.661Z,14.10
2018-09-15T02:16:31.248Z,14.10
2018-09-15T02:18:58.841Z,14.10
2018-09-15T02:21:26.434Z,14.10
2018-09-15T02:23:53.964Z,14.20
2018-09-15T02:26:21.533Z,14.20
2018-09-15T02:28:49.073Z,14.10
2018-09-15T02:31:16.613Z,14.10
2018-09-15T02:33:44.162Z,14.10
2018-09-15T02:36:11.703Z,14.20
2018-09-15T02:38:39.242Z,14.20
2018-09-15T02:41:06.785Z,14.10
2018-09-15T02:43:34.309Z,14.20
2018-09-15T02:46:01.915Z,14.20
2018-09-15T02:48:29.455Z,14.30
2018-09-15T02:50:57.962Z,14.30
2018-09-15T02:53:25.516Z,14.30
2018-09-15T02:55:53.110Z,14.30
2018-09-15T02:58:20.661Z,14.30
2018-09-15T03:00:48.221Z,14.30
2018-09-15T03:03:15.758Z,14.30
2018-09-15T03:05:43.321Z,14.20
2018-09-15T03:08:10.841Z,14.20
2018-09-15T03:10:38.392Z,14.20
2018-09-15T03:13:06.008Z,14.20
2018-09-15T03:15:33.517Z,14.20
2018-09-15T03:18:01.045Z,14.30
2018-09-15T03:20:28.576Z,14.30
2018-09-15T03:22:56.162Z,14.30
2018-09-15T03:25:23.735Z,14.30
2018-09-15T03:27:51.279Z,14.30
2018-09-15T03:30:18.969Z,14.30
2018-09-15T03:32:46.510Z,14.30
2018-09-15T03:35:14.081Z,14.30
2018-09-15T03:37:41.668Z,14.30
2018-09-15T03:40:09.189Z,14.30
2018-09-15T03:42:36.709Z,14.30
2018-09-15T03:45:04.313Z,14.30
2018-09-15T03:47:31.831Z,14.40
2018-09-15T03:49:59.364Z,14.40
2018-09-15T03:52:26.886Z,14.40
2018-09-15T03:54:54.443Z,14.40
2018-09-15T03:57:21.977Z,14.40
2018-09-15T03:59:49.593Z,14.50
2018-09-15T04:02:17.108Z,14.50
2018-09-15T04:04:45.217Z,14.50
2018-09-15T04:07:12.734Z,14.50
2018-09-15T04:09:40.358Z,14.50
2018-09-15T04:12:07.920Z,14.50
2018-09-15T04:14:35.459Z,14.60
2018-09-15T04:17:03.014Z,14.50
2018-09-15T04:19:30.570Z,14.50
2018-09-15T04:21:58.084Z,14.50
2018-09-15T04:24:25.666Z,14.50
2018-09-15T04:26:53.340Z,14.40
2018-09-15T04:29:20.885Z,14.40
2018-09-15T04:31:48.487Z,14.40
2018-09-15T04:34:16.098Z,14.60
2018-09-15T04:36:43.624Z,14.90
2018-09-15T04:39:11.874Z,15.30
2018-09-15T04:41:39.771Z,15.50
2018-09-15T04:44:07.510Z,15.70
2018-09-15T04:46:35.114Z,15.90
2018-09-15T04:49:02.657Z,16.00
2018-09-15T04:51:30.252Z,16.10
2018-09-15T04:53:57.917Z,16.20
2018-09-15T04:56:25.559Z,16.20
2018-09-15T04:58:53.127Z,16.10
2018-09-15T05:01:20.717Z,16.00
2018-09-15T05:03:48.315Z,15.90
2018-09-15T05:06:15.865Z,15.70
2018-09-15T05:08:43.420Z,15.70
2018-09-15T05:11:10.993Z,15.60
2018-09-15T05:13:38.745Z,15.50
2018-09-15T05:16:06.294Z,15.50
2018-09-15T05:18:33.837Z,15.40
2018-09-15T05:21:01.400Z,15.40
2018-09-15T05:23:28.931Z,15.40
2018-09-15T05:25:56.475Z,15.40
2018-09-15T05:28:24.011Z,15.40
2018-09-15T05:30:51.563Z,15.40
2018-09-15T05:33:19.113Z,15.40
2018-09-15T05:35:46.629Z,15.50
2018-09-15T05:38:14.165Z,15.60
2018-09-15T05:40:41.737Z,15.60
2018-09-15T05:43:09.289Z,15.60
2018-09-15T05:45:37.003Z,15.70
2018-09-15T05:48:04.842Z,15.80
2018-09-15T05:50:32.419Z,15.90
2018-09-15T05:53:00.303Z,16.00
2018-09-15T05:55:27.882Z,16.00
2018-09-15T05:57:55.433Z,15.90
2018-09-15T06:00:23.084Z,15.90
2018-09-15T06:02:50.613Z,16.00
2018-09-15T06:05:18.217Z,16.00
2018-09-15T06:07:45.841Z,16.00
2018-09-15T06:10:13.325Z,16.10
2018-09-15T06:12:40.882Z,16.10
2018-09-15T06:15:08.455Z,16.20
2018-09-15T06:17:36.026Z,16.20
2018-09-15T06:20:03.689Z,16.20
2018-09-15T06:22:31.216Z,16.30
2018-09-15T06:24:58.785Z,16.30
2018-09-15T06:27:26.316Z,16.30
2018-09-15T06:29:53.884Z,16.40
2018-09-15T06:32:21.414Z,16.50
2018-09-15T06:34:48.988Z,16.50
2018-09-15T06:37:16.608Z,16.60
2018-09-15T06:39:44.243Z,16.60
2018-09-15T06:42:11.824Z,16.70
2018-09-15T06:44:39.354Z,16.80
2018-09-15T06:47:06.986Z,16.80
2018-09-15T06:49:34.572Z,16.90
2018-09-15T06:52:02.123Z,17.00
2018-09-15T06:54:29.706Z,17.00
2018-09-15T06:56:57.263Z,17.10
2018-09-15T06:59:24.830Z,17.20
2018-09-15T07:01:52.381Z,17.30
2018-09-15T07:04:19.935Z,17.30
2018-09-15T07:06:47.507Z,17.30
2018-09-15T07:09:15.091Z,17.40
2018-09-15T07:11:42.655Z,17.40
2018-09-15T07:14:10.863Z,17.50
2018-09-15T07:16:38.683Z,17.70
2018-09-15T07:19:06.330Z,17.90
2018-09-15T07:21:33.956Z,18.00
2018-09-15T07:24:01.530Z,18.10
2018-09-15T07:26:29.275Z,18.20
2018-09-15T07:28:56.814Z,18.10
2018-09-15T07:31:24.465Z,18.10
2018-09-15T07:33:52.039Z,18.10
2018-09-15T07:36:19.619Z,18.10
2018-09-15T07:38:47.171Z,18.00
2018-09-15T07:41:14.747Z,18.00
2018-09-15T07:43:42.321Z,18.00
2018-09-15T07:46:09.896Z,18.10
2018-09-15T07:48:37.783Z,18.10
2018-09-15T07:51:05.883Z,18.20
2018-09-15T07:53:33.437Z,18.20
2018-09-15T07:56:01.048Z,18.30
2018-09-15T07:58:28.609Z,18.40
2018-09-15T08:00:56.159Z,18.40
2018-09-15T08:03:26.645Z,18.40
2018-09-15T08:05:54.260Z,18.40
2018-09-15T08:08:21.849Z,18.50
2018-09-15T08:10:49.397Z,18.50
2018-09-15T08:13:16.967Z,18.50
2018-09-15T08:15:44.521Z,18.50
2018-09-15T08:18:12.097Z,18.60
2018-09-15T08:20:39.690Z,18.60
2018-09-15T08:23:07.268Z,18.70
2018-09-15T08:25:34.823Z,18.70
2018-09-15T08:28:02.399Z,18.70
2018-09-15T08:30:29.968Z,18.60
2018-09-15T08:32:57.528Z,18.60
2018-09-15T08:35:25.063Z,18.70
2018-09-15T08:37:52.622Z,18.80
2018-09-15T08:40:20.207Z,18.80
2018-09-15T08:42:47.825Z,18.90
2018-09-15T08:45:16.142Z,18.90
2018-09-15T08:47:43.701Z,18.90
2018-09-15T08:50:11.284Z,18.90
2018-09-15T08:52:38.957Z,19.00
2018-09-15T08:55:06.551Z,19.20
2018-09-15T08:57:34.159Z,19.50
2018-09-15T09:00:01.840Z,19.70
2018-09-15T09:02:29.435Z,19.90
2018-09-15T09:04:57.023Z,19.90
2018-09-15T09:07:24.576Z,20.00
2018-09-15T09:09:52.182Z,19.90
2018-09-15T09:12:19.758Z,19.80
2018-09-15T09:14:47.355Z,19.60
2018-09-15T09:17:14.900Z,19.50
2018-09-15T09:19:42.474Z,19.40
2018-09-15T09:22:10.024Z,19.30
2018-09-15T09:24:37.668Z,19.30
2018-09-15T09:27:05.272Z,19.30
2018-09-15T09:29:32.841Z,19.20
2018-09-15T09:32:00.376Z,19.30
2018-09-15T09:34:27.964Z,19.50
2018-09-15T09:36:55.538Z,19.60
2018-09-15T09:39:23.157Z,19.60
2018-09-15T09:41:50.698Z,19.70
2018-09-15T09:44:18.262Z,19.70
2018-09-15T09:46:45.809Z,19.70
2018-09-15T09:49:13.379Z,19.70
2018-09-15T09:51:43.083Z,19.60
2018-09-15T09:54:10.665Z,19.50
2018-09-15T09:56:38.254Z,19.50
2018-09-15T09:59:06.161Z,19.50
2018-09-15T10:01:39.357Z,19.50
2018-09-15T10:04:06.915Z,19.40
2018-09-15T10:06:34.535Z,19.40
2018-09-15T10:09:02.208Z,19.30
2018-09-15T10:11:29.867Z,19.30
2018-09-15T10:13:57.465Z,19.30
2018-09-15T10:16:25.068Z,19.30
2018-09-15T10:18:52.664Z,19.20
2018-09-15T10:21:20.231Z,19.20
2018-09-15T10:23:47.879Z,19.10
2018-09-15T10:26:15.449Z,19.10
2018-09-15T10:28:42.973Z,19.00
2018-09-15T10:31:10.584Z,19.00
2018-09-15T10:33:38.139Z,19.00
2018-09-15T10:36:05.775Z,19.10
2018-09-15T10:38:33.402Z,19.10
2018-09-15T10:41:00.918Z,19.20
2018-09-15T10:43:28.556Z,19.20
2018-09-15T10:45:56.138Z,19.20
2018-09-15T10:48:23.671Z,19.30
2018-09-15T10:50:51.263Z,19.30
2018-09-15T10:53:18.885Z,19.40
2018-09-15T10:55:46.472Z,19.50
2018-09-15T10:58:14.097Z,19.60
2018-09-15T11:00:41.712Z,19.60
2018-09-15T11:03:09.286Z,19.70
2018-09-15T11:05:36.832Z,19.80
2018-09-15T11:08:04.504Z,19.90
2018-09-15T11:10:32.074Z,19.90
2018-09-15T11:12:59.738Z,20.10
2018-09-15T11:15:27.286Z,20.20
2018-09-15T11:17:54.836Z,20.40
2018-09-15T11:20:22.366Z,20.60
2018-09-15T11:22:49.991Z,20.70
2018-09-15T11:25:17.516Z,20.80
2018-09-15T11:27:45.066Z,20.90
2018-09-15T11:30:12.595Z,21.00
2018-09-15T11:32:40.198Z,21.10
2018-09-15T11:35:08.011Z,21.30
2018-09-15T11:37:35.559Z,21.40
2018-09-15T11:40:03.244Z,21.60
2018-09-15T11:42:30.802Z,21.80
2018-09-15T11:44:58.378Z,22.10
2018-09-15T11:47:25.931Z,22.20
2018-09-15T11:49:53.544Z,22.30
2018-09-15T11:52:21.107Z,22.40
2018-09-15T11:54:48.658Z,22.70
2018-09-15T11:57:16.272Z,22.80
2018-09-15T11:59:43.861Z,22.80
2018-09-15T12:02:11.413Z,22.80
2018-09-15T12:04:38.995Z,22.80
2018-09-15T12:07:06.756Z,22.80
2018-09-15T12:09:34.370Z,22.80
2018-09-15T12:12:01.936Z,22.80
2018-09-15T12:14:29.541Z,22.80
2018-09-15T12:16:57.127Z,22.90
2018-09-15T12:19:24.688Z,22.80
2018-09-15T12:21:52.346Z,22.70
2018-09-15T12:24:19.863Z,22.80
2018-09-15T12:26:47.469Z,22.80
2018-09-15T12:29:15.029Z,22.70
2018-09-15T12:31:42.588Z,22.70
2018-09-15T12:34:10.175Z,22.70
2018-09-15T12:36:37.771Z,22.70
2018-09-15T12:39:07.201Z,22.60
2018-09-15T12:41:34.765Z,22.60
2018-09-15T12:44:02.391Z,22.60
2018-09-15T12:46:29.979Z,22.50
2018-09-15T12:48:57.552Z,22.40
2018-09-15T12:51:25.134Z,22.40
2018-09-15T12:53:52.684Z,22.70
2018-09-15T12:56:20.257Z,23.20
2018-09-15T12:58:47.989Z,23.90
2018-09-15T13:01:15.687Z,24.70
2018-09-15T13:03:43.247Z,25.30
2018-09-15T13:06:10.862Z,25.30
2018-09-15T13:08:38.472Z,25.50
2018-09-15T13:11:06.051Z,25.80
2018-09-15T13:13:33.633Z,25.80
2018-09-15T13:16:01.371Z,25.60
2018-09-15T13:18:28.929Z,25.30
2018-09-15T13:20:56.613Z,24.90
2018-09-15T13:23:24.179Z,24.50
2018-09-15T13:25:51.735Z,24.20
2018-09-15T13:28:19.345Z,23.90
2018-09-15T13:30:46.941Z,23.80
2018-09-15T13:33:14.509Z,23.80
2018-09-15T13:35:42.065Z,23.90
2018-09-15T13:38:09.736Z,23.80
2018-09-15T13:40:37.310Z,23.60
2018-09-15T13:43:04.975Z,23.60
2018-09-15T13:45:32.523Z,23.50
2018-09-15T13:48:00.292Z,23.40
2018-09-15T13:50:27.865Z,23.30
2018-09-15T13:52:55.455Z,23.20
2018-09-15T13:55:23.072Z,23.20
2018-09-15T13:57:50.676Z,23.20
2018-09-15T14:00:18.256Z,23.10
2018-09-15T14:02:45.847Z,23.00
2018-09-15T14:05:14.223Z,22.90
2018-09-15T14:07:42.400Z,22.80
2018-09-15T14:10:10.317Z,22.80
2018-09-15T14:12:38.021Z,22.80
2018-09-15T14:15:05.861Z,22.70
2018-09-15T14:17:33.611Z,22.60
2018-09-15T14:20:01.570Z,22.40
2018-09-15T14:22:29.110Z,22.30
2018-09-15T14:24:56.693Z,22.20
2018-09-15T14:27:24.282Z,22.20
2018-09-15T14:29:51.883Z,22.00
2018-09-15T14:32:19.542Z,21.90
2018-09-15T14:34:47.327Z,21.90
2018-09-15T14:37:14.847Z,21.80
2018-09-15T14:39:42.433Z,21.80
2018-09-15T14:42:10.049Z,21.90
2018-09-15T14:44:37.645Z,22.00
2018-09-15T14:47:05.279Z,22.00
2018-09-15T14:49:32.867Z,21.90
2018-09-15T14:52:00.503Z,21.80
2018-09-15T14:54:28.079Z,21.80
2018-09-15T14:56:55.647Z,21.80
2018-09-15T14:59:23.240Z,21.70
2018-09-15T15:01:50.878Z,21.70
2018-09-15T15:04:18.381Z,21.70
2018-09-15T15:06:45.979Z,21.70
2018-09-15T15:09:13.573Z,21.70
2018-09-15T15:11:41.211Z,21.60
2018-09-15T15:14:09.194Z,21.60
2018-09-15T15:16:36.828Z,21.60
2018-09-15T15:19:04.387Z,21.60
2018-09-15T15:21:31.935Z,21.60
2018-09-15T15:23:59.510Z,21.50
2018-09-15T15:26:27.243Z,21.40
2018-09-15T15:28:54.820Z,21.30
2018-09-15T15:31:22.468Z,21.20
2018-09-15T15:33:50.173Z,21.10
2018-09-15T15:36:17.770Z,20.90
2018-09-15T15:38:45.349Z,20.80
2018-09-15T15:41:12.954Z,20.70
2018-09-15T15:43:41.397Z,20.60
2018-09-15T15:46:09.106Z,20.60
2018-09-15T15:48:36.758Z,20.60
2018-09-15T15:51:04.518Z,20.60
2018-09-15T15:53:32.089Z,20.70
2018-09-15T15:55:59.707Z,20.80
2018-09-15T15:58:27.320Z,20.80
2018-09-15T16:00:54.903Z,20.90
2018-09-15T16:03:22.513Z,20.90
2018-09-15T16:05:50.122Z,21.00
2018-09-15T16:08:17.732Z,21.00
2018-09-15T16:10:45.399Z,21.00
2018-09-15T16:13:12.943Z,21.00
2018-09-15T16:15:40.540Z,21.00
2018-09-15T16:18:08.080Z,21.00
2018-09-15T16:20:35.642Z,21.00
2018-09-15T16:23:03.232Z,20.90
2018-09-15T16:25:30.825Z,20.90
2018-09-15T16:27:58.391Z,20.80
2018-09-15T16:30:25.949Z,20.70
2018-09-15T16:32:53.535Z,20.70
2018-09-15T16:35:21.094Z,20.70
2018-09-15T16:37:48.659Z,20.60
2018-09-15T16:40:16.259Z,20.60
2018-09-15T16:42:43.979Z,20.60
2018-09-15T16:45:11.530Z,20.50
2018-09-15T16:47:39.095Z,20.50
2018-09-15T16:50:06.761Z,20.40
2018-09-15T16:52:34.354Z,20.30
2018-09-15T16:55:01.948Z,20.20
2018-09-15T16:57:29.515Z,20.10
2018-09-15T16:59:57.139Z,20.00
2018-09-15T17:02:24.733Z,20.00
2018-09-15T17:04:52.292Z,20.00
2018-09-15T17:07:19.868Z,20.00
2018-09-15T17:09:47.455Z,20.00
2018-09-15T17:12:15.033Z,19.90
2018-09-15T17:14:42.632Z,19.80
2018-09-15T17:17:10.285Z,19.80
2018-09-15T17:19:37.932Z,19.70
2018-09-15T17:22:05.571Z,19.60
2018-09-15T17:24:33.686Z,19.50
2018-09-15T17:27:01.280Z,19.50
2018-09-15T17:29:28.892Z,19.40
2018-09-15T17:31:56.473Z,19.40
2018-09-15T17:34:24.291Z,19.30
2018-09-15T17:36:52.308Z,19.20
2018-09-15T17:39:19.816Z,19.20
2018-09-15T17:41:47.432Z,19.10
2018-09-15T17:44:15.006Z,19.10
2018-09-15T17:46:42.589Z,19.00
2018-09-15T17:49:10.173Z,18.90
2018-09-15T17:51:37.762Z,18.80
2018-09-15T17:54:05.502Z,18.70
2018-09-15T17:56:33.073Z,18.60
2018-09-15T17:59:00.681Z,18.50
2018-09-15T18:01:28.384Z,18.50
2018-09-15T18:03:56.752Z,18.40
2018-09-15T18:06:24.375Z,18.30
2018-09-15T18:08:52.457Z,18.20
2018-09-15T18:11:20.254Z,18.10
2018-09-15T18:13:48.001Z,18.10
2018-09-15T18:16:15.658Z,18.00
2018-09-15T18:18:43.280Z,17.90
2018-09-15T18:21:11.018Z,17.90
2018-09-15T18:23:38.644Z,17.80
2018-09-15T18:26:06.353Z,17.80
2018-09-15T18:28:34.055Z,17.70
2018-09-15T18:31:01.778Z,17.60
2018-09-15T18:33:29.469Z,17.50
2018-09-15T18:35:57.111Z,17.50
2018-09-15T18:38:24.752Z,17.40
2018-09-15T18:40:52.436Z,17.40
2018-09-15T18:43:20.180Z,17.40
2018-09-15T18:45:47.904Z,17.40
2018-09-15T18:48:15.590Z,17.40
2018-09-15T18:50:43.327Z,17.40
2018-09-15T18:53:11.076Z,17.30
2018-09-15T18:55:38.706Z,17.30
2018-09-15T18:58:06.452Z,17.30
2018-09-15T19:00:34.201Z,17.30
2018-09-15T19:03:02.388Z,17.30
2018-09-15T19:05:30.540Z,17.30
2018-09-15T19:07:58.517Z,17.30
2018-09-15T19:10:26.152Z,17.30
2018-09-15T19:12:55.022Z,17.40
2018-09-15T19:15:22.973Z,17.40
2018-09-15T19:17:50.746Z,17.40
2018-09-15T19:20:18.447Z,17.30
2018-09-15T19:22:47.028Z,17.30
2018-09-15T19:25:14.687Z,17.20
2018-09-15T19:27:42.407Z,17.10
2018-09-15T19:30:10.238Z,17.10
2018-09-15T19:32:37.897Z,17.10
2018-09-15T19:35:05.711Z,17.10
2018-09-15T19:37:33.769Z,17.10
2018-09-15T19:40:01.487Z,17.10
2018-09-15T19:42:29.177Z,17.20
2018-09-15T19:44:56.921Z,17.20
2018-09-15T19:47:24.586Z,17.20
2018-09-15T19:49:52.367Z,17.30
2018-09-15T19:52:20.085Z,17.30
2018-09-15T19:54:47.848Z,17.30
2018-09-15T19:57:15.515Z,17.30
2018-09-15T19:59:43.209Z,17.40
2018-09-15T20:02:10.897Z,17.40
2018-09-15T20:04:38.625Z,17.40
2018-09-15T20:07:06.285Z,17.30
2018-09-15T20:09:33.981Z,17.40
2018-09-15T20:12:01.943Z,17.40
2018-09-15T20:14:29.599Z,17.40
2018-09-15T20:16:56.168Z,17.40
2018-09-15T20:19:22.897Z,17.30
2018-09-15T20:21:49.400Z,17.30
2018-09-15T20:24:21.169Z,17.30
2018-09-15T20:26:48.831Z,17.30
2018-09-15T20:29:16.471Z,17.30
2018-09-15T20:31:44.132Z,17.20
2018-09-15T20:34:11.806Z,17.20
2018-09-15T20:36:40.514Z,17.20
2018-09-15T20:39:09.955Z,17.20
2018-09-15T20:41:37.584Z,17.20
2018-09-15T20:44:05.238Z,17.10
2018-09-15T20:46:32.881Z,17.10
2018-09-15T20:49:00.645Z,17.10
2018-09-15T20:51:28.465Z,17.10
2018-09-15T20:53:56.124Z,17.00
2018-09-15T20:56:23.844Z,17.00
2018-09-15T20:58:51.497Z,17.00
2018-09-15T21:01:19.209Z,16.90
2018-09-15T21:03:46.844Z,16.90
2018-09-15T21:06:15.526Z,16.80
2018-09-15T21:08:43.196Z,16.80
2018-09-15T21:11:10.883Z,16.70
2018-09-15T21:13:38.498Z,16.60
2018-09-15T21:16:06.418Z,16.60
2018-09-15T21:18:34.073Z,16.50
2018-09-15T21:21:01.691Z,16.40
2018-09-15T21:23:29.296Z,16.30
2018-09-15T21:25:56.853Z,16.20
2018-09-15T21:28:24.409Z,16.10
2018-09-15T21:30:51.981Z,16.00
2018-09-15T21:33:19.603Z,15.90
2018-09-15T21:35:47.169Z,15.90
2018-09-15T21:38:14.731Z,15.80
2018-09-15T21:40:42.325Z,15.70
2018-09-15T21:43:09.927Z,15.70
2018-09-15T21:45:37.481Z,15.60
2018-09-15T21:48:05.205Z,15.50
2018-09-15T21:50:32.839Z,15.50
2018-09-15T21:53:00.546Z,15.40
2018-09-15T21:55:28.113Z,15.40
2018-09-15T21:57:55.699Z,15.30
2018-09-15T22:00:23.310Z,15.20
2018-09-15T22:02:50.891Z,15.20
2018-09-15T22:05:18.455Z,15.10
2018-09-15T22:07:46.025Z,15.00
2018-09-15T22:10:13.592Z,15.00
2018-09-15T22:12:41.156Z,14.90
2018-09-15T22:15:25.035Z,14.90
2018-09-15T22:17:53.563Z,14.80
2018-09-15T22:20:21.161Z,14.80
2018-09-15T22:22:48.702Z,14.70
2018-09-15T22:25:16.605Z,14.70
2018-09-15T22:27:44.294Z,14.60
2018-09-15T22:30:11.854Z,14.60
2018-09-15T22:32:39.452Z,14.50
2018-09-15T22:35:07.034Z,14.40
2018-09-15T22:37:34.602Z,14.40
2018-09-15T22:40:02.545Z,14.40
2018-09-15T22:42:30.080Z,14.30
2018-09-15T22:44:58.004Z,14.30
2018-09-15T22:47:25.692Z,14.30
2018-09-15T22:49:53.264Z,14.20
2018-09-15T22:52:20.832Z,14.30
2018-09-15T22:54:48.373Z,14.20
2018-09-15T22:57:15.933Z,14.20
2018-09-15T22:59:43.471Z,14.20
2018-09-15T23:02:11.037Z,14.10
2018-09-15T23:04:38.689Z,14.20
2018-09-15T23:07:06.253Z,14.10
2018-09-15T23:09:33.840Z,14.10
2018-09-15T23:12:01.390Z,14.00
2018-09-15T23:14:28.944Z,14.00
2018-09-15T23:16:56.527Z,14.00
2018-09-15T23:19:24.122Z,14.00
2018-09-15T23:21:51.744Z,13.90
2018-09-15T23:24:19.281Z,13.90
2018-09-15T23:26:46.822Z,13.90
2018-09-15T23:29:14.376Z,13.80
2018-09-15T23:31:41.926Z,13.80
2018-09-15T23:34:09.476Z,13.80
2018-09-15T23:36:37.014Z,13.80
2018-09-15T23:39:07.193Z,13.70
2018-09-15T23:41:34.769Z,13.70
2018-09-15T23:44:02.359Z,13.70
2018-09-15T23:46:29.912Z,13.70
2018-09-15T23:48:57.493Z,13.60
2018-09-15T23:51:25.047Z,13.60
2018-09-15T23:53:52.590Z,13.60
2018-09-15T23:56:20.152Z,13.50
2018-09-15T23:58:47.821Z,13.50
